sensor_id;sensor_type;location;lat;lon;timestamp;P1;durP1;ratioP1;P2;durP2;ratioP2
60819;SDS011;46641;48.904;9.126;2022-12-18T00:00:28;35.55;;;22.60;;
60819;SDS011;46641;48.904;9.126;2022-12-18T00:05:18;34.40;;;22.20;;
60819;SDS011;46641;48.904;9.126;2022-12-18T00:10:09;36.43;;;22.20;;
60819;SDS011;46641;48.904;9.126;2022-12-18T00:14:59;37.90;;;23.37;;
60819;SDS011;46641;48.904;9.126;2022-12-18T00:19:49;39.50;;;23.63;;
60819;SDS011;46641;48.904;9.126;2022-12-18T00:24:40;37.50;;;23.43;;
60819;SDS011;46641;48.904;9.126;2022-12-18T00:29:30;32.50;;;20.00;;
60819;SDS011;46641;48.904;9.126;2022-12-18T00:34:20;31.73;;;21.03;;
60819;SDS011;46641;48.904;9.126;2022-12-18T00:39:10;46.60;;;28.92;;
60819;SDS011;46641;48.904;9.126;2022-12-18T00:44:02;37.93;;;23.10;;
60819;SDS011;46641;48.904;9.126;2022-12-18T00:48:53;43.73;;;23.13;;
60819;SDS011;46641;48.904;9.126;2022-12-18T00:53:43;36.70;;;20.83;;
60819;SDS011;46641;48.904;9.126;2022-12-18T00:58:36;31.70;;;19.13;;
60819;SDS011;46641;48.904;9.126;2022-12-18T01:03:26;36.50;;;20.93;;
60819;SDS011;46641;48.904;9.126;2022-12-18T01:08:17;29.73;;;19.30;;
60819;SDS011;46641;48.904;9.126;2022-12-18T01:13:07;37.83;;;22.37;;
60819;SDS011;46641;48.904;9.126;2022-12-18T01:17:58;36.90;;;21.57;;
60819;SDS011;46641;48.904;9.126;2022-12-18T01:22:48;33.25;;;21.08;;
60819;SDS011;46641;48.904;9.126;2022-12-18T01:27:38;33.65;;;19.40;;
60819;SDS011;46641;48.904;9.126;2022-12-18T01:32:29;42.83;;;25.27;;
60819;SDS011;46641;48.904;9.126;2022-12-18T01:37:20;34.73;;;22.43;;
60819;SDS011;46641;48.904;9.126;2022-12-18T01:42:12;35.67;;;23.43;;
60819;SDS011;46641;48.904;9.126;2022-12-18T01:47:03;32.50;;;19.87;;
60819;SDS011;46641;48.904;9.126;2022-12-18T01:51:53;34.70;;;21.07;;
60819;SDS011;46641;48.904;9.126;2022-12-18T01:56:44;37.00;;;22.63;;
60819;SDS011;46641;48.904;9.126;2022-12-18T02:01:34;40.78;;;22.17;;
60819;SDS011;46641;48.904;9.126;2022-12-18T02:06:36;34.97;;;21.47;;
60819;SDS011;46641;48.904;9.126;2022-12-18T02:16:40;40.10;;;25.17;;
60819;SDS011;46641;48.904;9.126;2022-12-18T02:21:47;37.67;;;22.40;;
60819;SDS011;46641;48.904;9.126;2022-12-18T02:26:49;35.83;;;21.37;;
60819;SDS011;46641;48.904;9.126;2022-12-18T02:31:45;33.17;;;21.53;;
60819;SDS011;46641;48.904;9.126;2022-12-18T02:36:40;36.07;;;19.97;;
60819;SDS011;46641;48.904;9.126;2022-12-18T02:41:34;38.13;;;21.63;;
60819;SDS011;46641;48.904;9.126;2022-12-18T02:51:42;32.70;;;20.20;;
60819;SDS011;46641;48.904;9.126;2022-12-18T02:56:43;29.60;;;19.47;;
60819;SDS011;46641;48.904;9.126;2022-12-18T03:01:49;35.67;;;20.43;;
60819;SDS011;46641;48.904;9.126;2022-12-18T03:06:48;34.10;;;20.07;;
60819;SDS011;46641;48.904;9.126;2022-12-18T03:11:42;31.90;;;19.83;;
60819;SDS011;46641;48.904;9.126;2022-12-18T03:16:57;35.47;;;19.43;;
60819;SDS011;46641;48.904;9.126;2022-12-18T03:21:53;32.23;;;19.73;;
60819;SDS011;46641;48.904;9.126;2022-12-18T03:26:47;34.47;;;17.87;;
60819;SDS011;46641;48.904;9.126;2022-12-18T03:31:46;31.00;;;17.80;;
60819;SDS011;46641;48.904;9.126;2022-12-18T03:36:41;31.17;;;18.10;;
60819;SDS011;46641;48.904;9.126;2022-12-18T03:41:32;33.97;;;20.10;;
60819;SDS011;46641;48.904;9.126;2022-12-18T03:46:41;32.70;;;18.03;;
60819;SDS011;46641;48.904;9.126;2022-12-18T03:51:44;31.67;;;18.73;;
60819;SDS011;46641;48.904;9.126;2022-12-18T03:56:42;33.37;;;19.17;;
60819;SDS011;46641;48.904;9.126;2022-12-18T04:01:38;33.40;;;18.27;;
60819;SDS011;46641;48.904;9.126;2022-12-18T04:06:35;30.20;;;16.87;;
60819;SDS011;46641;48.904;9.126;2022-12-18T04:11:27;30.73;;;17.67;;
60819;SDS011;46641;48.904;9.126;2022-12-18T04:16:18;27.37;;;16.83;;
60819;SDS011;46641;48.904;9.126;2022-12-18T04:21:08;27.40;;;16.08;;
60819;SDS011;46641;48.904;9.126;2022-12-18T04:25:59;30.33;;;18.00;;
60819;SDS011;46641;48.904;9.126;2022-12-18T04:30:50;26.63;;;15.93;;
60819;SDS011;46641;48.904;9.126;2022-12-18T04:35:40;28.27;;;17.47;;
60819;SDS011;46641;48.904;9.126;2022-12-18T04:40:35;26.57;;;14.40;;
60819;SDS011;46641;48.904;9.126;2022-12-18T04:45:25;28.47;;;16.23;;
60819;SDS011;46641;48.904;9.126;2022-12-18T04:50:16;30.00;;;16.73;;
60819;SDS011;46641;48.904;9.126;2022-12-18T04:55:06;31.73;;;18.50;;
60819;SDS011;46641;48.904;9.126;2022-12-18T04:59:57;24.33;;;17.07;;
60819;SDS011;46641;48.904;9.126;2022-12-18T05:04:47;28.63;;;16.80;;
60819;SDS011;46641;48.904;9.126;2022-12-18T05:09:37;28.95;;;17.83;;
60819;SDS011;46641;48.904;9.126;2022-12-18T05:14:28;29.00;;;16.53;;
60819;SDS011;46641;48.904;9.126;2022-12-18T05:19:19;26.73;;;17.00;;
60819;SDS011;46641;48.904;9.126;2022-12-18T05:24:09;30.50;;;18.00;;
60819;SDS011;46641;48.904;9.126;2022-12-18T05:28:59;26.55;;;15.82;;
60819;SDS011;46641;48.904;9.126;2022-12-18T05:33:50;32.60;;;17.33;;
60819;SDS011;46641;48.904;9.126;2022-12-18T05:38:40;30.10;;;17.85;;
60819;SDS011;46641;48.904;9.126;2022-12-18T05:43:31;28.60;;;17.87;;
60819;SDS011;46641;48.904;9.126;2022-12-18T05:48:26;34.33;;;17.97;;
60819;SDS011;46641;48.904;9.126;2022-12-18T05:53:17;31.65;;;19.17;;
60819;SDS011;46641;48.904;9.126;2022-12-18T05:58:09;29.27;;;17.00;;
60819;SDS011;46641;48.904;9.126;2022-12-18T06:03:01;27.67;;;16.57;;
60819;SDS011;46641;48.904;9.126;2022-12-18T06:07:53;31.87;;;17.97;;
60819;SDS011;46641;48.904;9.126;2022-12-18T06:12:43;25.45;;;15.25;;
60819;SDS011;46641;48.904;9.126;2022-12-18T06:17:34;27.03;;;15.30;;
60819;SDS011;46641;48.904;9.126;2022-12-18T06:22:25;24.47;;;15.93;;
60819;SDS011;46641;48.904;9.126;2022-12-18T06:27:16;29.33;;;16.53;;
60819;SDS011;46641;48.904;9.126;2022-12-18T06:32:06;27.53;;;16.07;;
60819;SDS011;46641;48.904;9.126;2022-12-18T06:36:57;21.43;;;14.17;;
60819;SDS011;46641;48.904;9.126;2022-12-18T06:41:47;30.00;;;17.60;;
60819;SDS011;46641;48.904;9.126;2022-12-18T06:46:37;29.58;;;16.60;;
60819;SDS011;46641;48.904;9.126;2022-12-18T06:51:28;32.10;;;18.60;;
60819;SDS011;46641;48.904;9.126;2022-12-18T06:56:18;25.73;;;16.13;;
60819;SDS011;46641;48.904;9.126;2022-12-18T07:01:09;26.63;;;16.83;;
60819;SDS011;46641;48.904;9.126;2022-12-18T07:06:01;25.03;;;15.93;;
60819;SDS011;46641;48.904;9.126;2022-12-18T07:10:51;40.30;;;21.40;;
60819;SDS011;46641;48.904;9.126;2022-12-18T07:15:43;26.77;;;16.90;;
60819;SDS011;46641;48.904;9.126;2022-12-18T07:20:34;26.63;;;16.73;;
60819;SDS011;46641;48.904;9.126;2022-12-18T07:25:24;27.97;;;16.90;;
60819;SDS011;46641;48.904;9.126;2022-12-18T07:30:14;32.00;;;18.15;;
60819;SDS011;46641;48.904;9.126;2022-12-18T07:35:05;32.53;;;18.13;;
60819;SDS011;46641;48.904;9.126;2022-12-18T07:39:55;27.40;;;17.07;;
60819;SDS011;46641;48.904;9.126;2022-12-18T07:44:45;25.60;;;15.97;;
60819;SDS011;46641;48.904;9.126;2022-12-18T07:49:36;26.90;;;16.20;;
60819;SDS011;46641;48.904;9.126;2022-12-18T07:54:26;26.37;;;15.80;;
60819;SDS011;46641;48.904;9.126;2022-12-18T07:59:17;22.60;;;15.00;;
60819;SDS011;46641;48.904;9.126;2022-12-18T08:04:08;18.53;;;13.17;;
60819;SDS011;46641;48.904;9.126;2022-12-18T08:08:59;28.20;;;16.53;;
60819;SDS011;46641;48.904;9.126;2022-12-18T08:13:49;22.55;;;14.65;;
60819;SDS011;46641;48.904;9.126;2022-12-18T08:18:40;23.97;;;15.30;;
60819;SDS011;46641;48.904;9.126;2022-12-18T08:23:30;27.88;;;16.92;;
60819;SDS011;46641;48.904;9.126;2022-12-18T08:28:20;27.85;;;17.58;;
60819;SDS011;46641;48.904;9.126;2022-12-18T08:33:10;22.38;;;14.10;;
60819;SDS011;46641;48.904;9.126;2022-12-18T08:38:01;25.87;;;16.13;;
60819;SDS011;46641;48.904;9.126;2022-12-18T08:42:51;31.30;;;18.05;;
60819;SDS011;46641;48.904;9.126;2022-12-18T08:48:00;27.20;;;16.30;;
60819;SDS011;46641;48.904;9.126;2022-12-18T08:52:50;30.05;;;17.58;;
60819;SDS011;46641;48.904;9.126;2022-12-18T08:57:40;27.55;;;17.73;;
60819;SDS011;46641;48.904;9.126;2022-12-18T09:02:30;31.23;;;17.65;;
60819;SDS011;46641;48.904;9.126;2022-12-18T09:07:21;27.23;;;15.43;;
60819;SDS011;46641;48.904;9.126;2022-12-18T09:12:11;25.77;;;16.03;;
60819;SDS011;46641;48.904;9.126;2022-12-18T09:17:01;30.00;;;17.20;;
60819;SDS011;46641;48.904;9.126;2022-12-18T09:21:52;30.47;;;18.90;;
60819;SDS011;46641;48.904;9.126;2022-12-18T09:26:42;27.83;;;16.70;;
60819;SDS011;46641;48.904;9.126;2022-12-18T09:31:34;28.50;;;17.87;;
60819;SDS011;46641;48.904;9.126;2022-12-18T09:36:24;29.67;;;17.60;;
60819;SDS011;46641;48.904;9.126;2022-12-18T09:46:14;31.73;;;18.30;;
60819;SDS011;46641;48.904;9.126;2022-12-18T09:51:11;31.80;;;18.03;;
60819;SDS011;46641;48.904;9.126;2022-12-18T09:56:05;30.67;;;16.20;;
60819;SDS011;46641;48.904;9.126;2022-12-18T10:00:59;28.23;;;16.03;;
60819;SDS011;46641;48.904;9.126;2022-12-18T10:06:11;28.85;;;16.40;;
60819;SDS011;46641;48.904;9.126;2022-12-18T10:11:22;27.53;;;16.40;;
60819;SDS011;46641;48.904;9.126;2022-12-18T10:26:49;26.17;;;15.93;;
60819;SDS011;46641;48.904;9.126;2022-12-18T10:31:42;29.20;;;17.57;;
60819;SDS011;46641;48.904;9.126;2022-12-18T10:36:33;29.73;;;18.27;;
60819;SDS011;46641;48.904;9.126;2022-12-18T10:41:25;23.97;;;15.30;;
60819;SDS011;46641;48.904;9.126;2022-12-18T10:46:17;30.90;;;16.73;;
60819;SDS011;46641;48.904;9.126;2022-12-18T10:51:10;35.20;;;18.87;;
60819;SDS011;46641;48.904;9.126;2022-12-18T10:56:19;32.53;;;21.30;;
60819;SDS011;46641;48.904;9.126;2022-12-18T11:01:12;28.90;;;18.33;;
60819;SDS011;46641;48.904;9.126;2022-12-18T11:10:58;31.40;;;19.57;;
60819;SDS011;46641;48.904;9.126;2022-12-18T11:15:48;28.37;;;15.20;;
60819;SDS011;46641;48.904;9.126;2022-12-18T11:20:39;32.87;;;18.73;;
60819;SDS011;46641;48.904;9.126;2022-12-18T11:25:31;29.03;;;16.37;;
60819;SDS011;46641;48.904;9.126;2022-12-18T11:30:24;20.27;;;13.03;;
60819;SDS011;46641;48.904;9.126;2022-12-18T11:35:34;24.23;;;14.57;;
60819;SDS011;46641;48.904;9.126;2022-12-18T11:40:47;32.27;;;18.77;;
60819;SDS011;46641;48.904;9.126;2022-12-18T11:45:52;33.93;;;20.87;;
60819;SDS011;46641;48.904;9.126;2022-12-18T11:50:57;23.90;;;14.97;;
60819;SDS011;46641;48.904;9.126;2022-12-18T11:56:00;28.17;;;17.10;;
60819;SDS011;46641;48.904;9.126;2022-12-18T12:17:34;29.10;;;15.40;;
60819;SDS011;46641;48.904;9.126;2022-12-18T12:22:00;32.40;;;20.20;;
60819;SDS011;46641;48.904;9.126;2022-12-18T12:42:17;28.77;;;16.07;;
60819;SDS011;46641;48.904;9.126;2022-12-18T12:47:36;27.60;;;15.40;;
60819;SDS011;46641;48.904;9.126;2022-12-18T12:52:37;30.73;;;16.37;;
60819;SDS011;46641;48.904;9.126;2022-12-18T12:57:45;29.17;;;17.50;;
60819;SDS011;46641;48.904;9.126;2022-12-18T13:12:56;37.88;;;28.05;;
60819;SDS011;46641;48.904;9.126;2022-12-18T13:17:46;34.57;;;21.87;;
60819;SDS011;46641;48.904;9.126;2022-12-18T13:32:41;32.80;;;19.57;;
60819;SDS011;46641;48.904;9.126;2022-12-18T13:37:42;31.07;;;19.70;;
60819;SDS011;46641;48.904;9.126;2022-12-18T13:42:40;31.73;;;18.27;;
60819;SDS011;46641;48.904;9.126;2022-12-18T13:47:49;38.17;;;20.07;;
60819;SDS011;46641;48.904;9.126;2022-12-18T13:52:40;33.43;;;19.53;;
60819;SDS011;46641;48.904;9.126;2022-12-18T13:57:36;33.80;;;18.67;;
60819;SDS011;46641;48.904;9.126;2022-12-18T14:02:28;31.37;;;17.47;;
60819;SDS011;46641;48.904;9.126;2022-12-18T14:07:19;31.70;;;17.40;;
60819;SDS011;46641;48.904;9.126;2022-12-18T14:12:16;30.13;;;18.90;;
60819;SDS011;46641;48.904;9.126;2022-12-18T14:17:30;31.30;;;17.77;;
60819;SDS011;46641;48.904;9.126;2022-12-18T14:22:23;30.37;;;16.97;;
60819;SDS011;46641;48.904;9.126;2022-12-18T14:27:21;36.03;;;26.40;;
60819;SDS011;46641;48.904;9.126;2022-12-18T14:32:19;34.40;;;21.93;;
60819;SDS011;46641;48.904;9.126;2022-12-18T14:37:11;30.70;;;19.20;;
60819;SDS011;46641;48.904;9.126;2022-12-18T14:42:02;32.50;;;20.77;;
60819;SDS011;46641;48.904;9.126;2022-12-18T14:46:53;32.77;;;19.47;;
60819;SDS011;46641;48.904;9.126;2022-12-18T14:51:47;33.57;;;19.43;;
60819;SDS011;46641;48.904;9.126;2022-12-18T14:56:48;36.13;;;21.00;;
60819;SDS011;46641;48.904;9.126;2022-12-18T15:12:01;38.63;;;28.60;;
60819;SDS011;46641;48.904;9.126;2022-12-18T15:16:55;37.57;;;22.37;;
60819;SDS011;46641;48.904;9.126;2022-12-18T15:21:47;30.43;;;20.60;;
60819;SDS011;46641;48.904;9.126;2022-12-18T15:26:38;32.33;;;19.97;;
60819;SDS011;46641;48.904;9.126;2022-12-18T15:31:29;36.03;;;22.03;;
60819;SDS011;46641;48.904;9.126;2022-12-18T15:36:22;38.17;;;22.50;;
60819;SDS011;46641;48.904;9.126;2022-12-18T15:41:14;34.40;;;20.80;;
60819;SDS011;46641;48.904;9.126;2022-12-18T15:46:10;44.10;;;33.47;;
60819;SDS011;46641;48.904;9.126;2022-12-18T15:51:01;33.60;;;24.93;;
60819;SDS011;46641;48.904;9.126;2022-12-18T15:55:52;39.33;;;23.03;;
60819;SDS011;46641;48.904;9.126;2022-12-18T16:01:01;39.77;;;23.77;;
60819;SDS011;46641;48.904;9.126;2022-12-18T16:05:51;35.17;;;24.47;;
60819;SDS011;46641;48.904;9.126;2022-12-18T16:10:42;40.13;;;23.97;;
60819;SDS011;46641;48.904;9.126;2022-12-18T16:15:32;42.07;;;24.17;;
60819;SDS011;46641;48.904;9.126;2022-12-18T16:20:22;40.93;;;24.80;;
60819;SDS011;46641;48.904;9.126;2022-12-18T16:25:16;35.93;;;21.83;;
60819;SDS011;46641;48.904;9.126;2022-12-18T16:30:21;40.47;;;25.83;;
60819;SDS011;46641;48.904;9.126;2022-12-18T16:35:13;37.93;;;22.73;;
60819;SDS011;46641;48.904;9.126;2022-12-18T16:40:06;40.93;;;24.27;;
60819;SDS011;46641;48.904;9.126;2022-12-18T16:45:01;38.10;;;23.87;;
60819;SDS011;46641;48.904;9.126;2022-12-18T16:49:52;42.23;;;25.53;;
60819;SDS011;46641;48.904;9.126;2022-12-18T16:54:42;34.20;;;22.83;;
60819;SDS011;46641;48.904;9.126;2022-12-18T16:59:36;39.17;;;24.70;;
60819;SDS011;46641;48.904;9.126;2022-12-18T17:04:26;37.47;;;24.10;;
60819;SDS011;46641;48.904;9.126;2022-12-18T17:09:17;38.37;;;24.77;;
60819;SDS011;46641;48.904;9.126;2022-12-18T17:14:15;41.37;;;25.40;;
60819;SDS011;46641;48.904;9.126;2022-12-18T17:19:07;40.67;;;23.63;;
60819;SDS011;46641;48.904;9.126;2022-12-18T17:23:58;40.53;;;24.40;;
60819;SDS011;46641;48.904;9.126;2022-12-18T17:28:50;41.57;;;25.63;;
60819;SDS011;46641;48.904;9.126;2022-12-18T17:33:40;36.33;;;23.57;;
60819;SDS011;46641;48.904;9.126;2022-12-18T17:38:31;36.23;;;22.23;;
60819;SDS011;46641;48.904;9.126;2022-12-18T17:43:21;39.27;;;22.43;;
60819;SDS011;46641;48.904;9.126;2022-12-18T17:48:11;34.07;;;21.20;;
60819;SDS011;46641;48.904;9.126;2022-12-18T17:53:02;35.23;;;20.20;;
60819;SDS011;46641;48.904;9.126;2022-12-18T17:57:52;33.83;;;20.47;;
60819;SDS011;46641;48.904;9.126;2022-12-18T18:02:43;31.03;;;19.50;;
60819;SDS011;46641;48.904;9.126;2022-12-18T18:07:33;31.03;;;19.30;;
60819;SDS011;46641;48.904;9.126;2022-12-18T18:12:24;32.63;;;19.73;;
60819;SDS011;46641;48.904;9.126;2022-12-18T18:17:33;31.13;;;20.07;;
60819;SDS011;46641;48.904;9.126;2022-12-18T18:22:23;29.37;;;17.17;;
60819;SDS011;46641;48.904;9.126;2022-12-18T18:27:13;34.00;;;19.90;;
60819;SDS011;46641;48.904;9.126;2022-12-18T18:32:04;31.93;;;19.03;;
60819;SDS011;46641;48.904;9.126;2022-12-18T18:36:58;33.23;;;20.00;;
60819;SDS011;46641;48.904;9.126;2022-12-18T18:41:49;32.83;;;19.97;;
60819;SDS011;46641;48.904;9.126;2022-12-18T18:46:40;28.03;;;17.30;;
60819;SDS011;46641;48.904;9.126;2022-12-18T18:51:31;25.97;;;15.67;;
60819;SDS011;46641;48.904;9.126;2022-12-18T18:56:23;28.03;;;16.47;;
60819;SDS011;46641;48.904;9.126;2022-12-18T19:01:17;32.83;;;19.50;;
60819;SDS011;46641;48.904;9.126;2022-12-18T19:06:13;33.93;;;19.27;;
60819;SDS011;46641;48.904;9.126;2022-12-18T19:11:15;28.97;;;18.07;;
60819;SDS011;46641;48.904;9.126;2022-12-18T19:16:25;33.73;;;21.83;;
60819;SDS011;46641;48.904;9.126;2022-12-18T19:21:16;40.00;;;22.67;;
60819;SDS011;46641;48.904;9.126;2022-12-18T19:26:07;34.33;;;19.83;;
60819;SDS011;46641;48.904;9.126;2022-12-18T19:30:59;27.97;;;17.80;;
60819;SDS011;46641;48.904;9.126;2022-12-18T19:35:52;33.77;;;19.27;;
60819;SDS011;46641;48.904;9.126;2022-12-18T19:40:43;30.10;;;17.47;;
60819;SDS011;46641;48.904;9.126;2022-12-18T19:45:34;28.83;;;18.57;;
60819;SDS011;46641;48.904;9.126;2022-12-18T19:50:24;31.30;;;17.67;;
60819;SDS011;46641;48.904;9.126;2022-12-18T19:55:15;31.47;;;18.13;;
60819;SDS011;46641;48.904;9.126;2022-12-18T20:00:06;30.23;;;18.43;;
60819;SDS011;46641;48.904;9.126;2022-12-18T20:04:58;28.17;;;17.73;;
60819;SDS011;46641;48.904;9.126;2022-12-18T20:09:48;25.00;;;15.07;;
60819;SDS011;46641;48.904;9.126;2022-12-18T20:14:39;30.30;;;18.75;;
60819;SDS011;46641;48.904;9.126;2022-12-18T20:19:29;27.07;;;19.50;;
60819;SDS011;46641;48.904;9.126;2022-12-18T20:24:20;33.90;;;22.30;;
60819;SDS011;46641;48.904;9.126;2022-12-18T20:29:10;25.43;;;16.33;;
60819;SDS011;46641;48.904;9.126;2022-12-18T20:34:01;29.83;;;18.63;;
60819;SDS011;46641;48.904;9.126;2022-12-18T20:38:51;33.43;;;20.30;;
60819;SDS011;46641;48.904;9.126;2022-12-18T20:43:43;31.10;;;20.00;;
60819;SDS011;46641;48.904;9.126;2022-12-18T20:48:34;31.33;;;20.33;;
60819;SDS011;46641;48.904;9.126;2022-12-18T20:53:24;28.30;;;18.10;;
60819;SDS011;46641;48.904;9.126;2022-12-18T20:58:15;29.73;;;17.57;;
60819;SDS011;46641;48.904;9.126;2022-12-18T21:03:05;30.27;;;18.60;;
60819;SDS011;46641;48.904;9.126;2022-12-18T21:07:55;33.77;;;19.57;;
60819;SDS011;46641;48.904;9.126;2022-12-18T21:12:46;30.52;;;18.52;;
60819;SDS011;46641;48.904;9.126;2022-12-18T21:17:38;27.20;;;16.47;;
60819;SDS011;46641;48.904;9.126;2022-12-18T21:22:28;28.90;;;16.63;;
60819;SDS011;46641;48.904;9.126;2022-12-18T21:27:18;27.70;;;17.23;;
60819;SDS011;46641;48.904;9.126;2022-12-18T21:32:09;30.33;;;19.27;;
60819;SDS011;46641;48.904;9.126;2022-12-18T21:37:00;30.07;;;18.17;;
60819;SDS011;46641;48.904;9.126;2022-12-18T21:41:51;29.97;;;16.70;;
60819;SDS011;46641;48.904;9.126;2022-12-18T21:47:00;32.37;;;19.10;;
60819;SDS011;46641;48.904;9.126;2022-12-18T21:51:51;33.38;;;19.95;;
60819;SDS011;46641;48.904;9.126;2022-12-18T21:56:48;29.00;;;17.73;;
60819;SDS011;46641;48.904;9.126;2022-12-18T22:01:51;29.27;;;16.20;;
60819;SDS011;46641;48.904;9.126;2022-12-18T22:06:43;29.40;;;18.77;;
60819;SDS011;46641;48.904;9.126;2022-12-18T22:11:33;28.33;;;16.73;;
60819;SDS011;46641;48.904;9.126;2022-12-18T22:16:24;30.80;;;18.17;;
60819;SDS011;46641;48.904;9.126;2022-12-18T22:21:33;31.92;;;18.75;;
60819;SDS011;46641;48.904;9.126;2022-12-18T22:26:25;32.37;;;18.60;;
60819;SDS011;46641;48.904;9.126;2022-12-18T22:31:16;27.73;;;17.07;;
60819;SDS011;46641;48.904;9.126;2022-12-18T22:36:06;30.48;;;19.67;;
60819;SDS011;46641;48.904;9.126;2022-12-18T22:40:57;36.33;;;21.40;;
60819;SDS011;46641;48.904;9.126;2022-12-18T22:45:47;33.03;;;21.90;;
60819;SDS011;46641;48.904;9.126;2022-12-18T22:50:38;29.70;;;17.03;;
60819;SDS011;46641;48.904;9.126;2022-12-18T22:55:28;31.23;;;17.55;;
60819;SDS011;46641;48.904;9.126;2022-12-18T23:00:18;30.80;;;18.20;;
60819;SDS011;46641;48.904;9.126;2022-12-18T23:05:08;29.73;;;18.13;;
60819;SDS011;46641;48.904;9.126;2022-12-18T23:09:59;33.83;;;19.00;;
60819;SDS011;46641;48.904;9.126;2022-12-18T23:14:49;32.10;;;18.47;;
60819;SDS011;46641;48.904;9.126;2022-12-18T23:19:39;30.50;;;18.33;;
60819;SDS011;46641;48.904;9.126;2022-12-18T23:24:30;29.92;;;18.83;;
60819;SDS011;46641;48.904;9.126;2022-12-18T23:29:20;27.58;;;18.27;;
60819;SDS011;46641;48.904;9.126;2022-12-18T23:34:11;27.42;;;16.30;;
60819;SDS011;46641;48.904;9.126;2022-12-18T23:39:02;27.97;;;18.23;;
60819;SDS011;46641;48.904;9.126;2022-12-18T23:43:52;29.17;;;16.63;;
60819;SDS011;46641;48.904;9.126;2022-12-18T23:48:43;25.43;;;16.00;;
60819;SDS011;46641;48.904;9.126;2022-12-18T23:53:33;28.47;;;16.67;;
60819;SDS011;46641;48.904;9.126;2022-12-18T23:58:24;25.63;;;15.77;;
